Potomac — WBF7534 — position and weather

sailwx.info

Track history (hours):
 
Tides and Currents Weather Stations Pressure Air Temp Water Temp Dewpoint Dewpoint Depression Visibility Wind Speed Wind Dir Waves Ship Positions

Potomac

Owner: POTOMAC ASSOCIATION, OAKLAND, CA. More information available from US FCC via Universal Licensing System and Coast Guard Vessel Documentation Center.

Last reported at 2018-Jul-21 00:43 UTC. Time now 2018-Jul-22 06:57 UTC.
Position N 37°48' W 122°17'.

Length 51 m; draft 3.1 m.

MMSI: 367166810.

Date/timePositionNaut miles runAvg speedWind from/ knotsBaromVisibWave heightAir tempDewpointWater temp
2018-Jul-21 00:43N 37°48' W 122°17'0 1.9
2018-Jul-21 00:31N 37°48' W 122°17'510.1
2018-Jul-21 00:01N 37°48' W 122°24'2 3.6
2018-Jul-20 23:31N 37°50' W 122°23'4 8.6
2018-Jul-20 23:00N 37°48' W 122°18'1 2.4
2018-Jul-20 22:30N 37°48' W 122°17'0 0.0
2018-Jul-20 22:00N 37°48' W 122°17'0 0.0
2018-Jul-20 21:31N 37°48' W 122°17'0 0.0
2018-Jul-20 21:01N 37°48' W 122°17'0 0.0
2018-Jul-19 20:44N 37°48' W 122°17'5 5.9
2018-Jul-19 19:57N 37°48' W 122°23'511.5
2018-Jul-19 19:30N 37°49' W 122°29'511.0
2018-Jul-19 19:00N 37°55' W 122°27'2 3.3
2018-Jul-19 18:30N 37°54' W 122°25'611.5
2018-Jul-19 18:00N 37°49' W 122°21'4 7.8
2018-Jul-19 17:30N 37°48' W 122°17'  
2018-Jul-15 01:16N 37°48' W 122°17'1 2.0
2018-Jul-15 01:00N 37°48' W 122°17'4 8.2
2018-Jul-15 00:30N 37°50' W 122°22'5 9.3
2018-Jul-15 00:00N 37°52' W 122°27'1 2.5
2018-Jul-14 23:30N 37°51' W 122°29'3 6.1
2018-Jul-14 23:00N 37°50' W 122°25'5 9.9
2018-Jul-14 22:30N 37°48' W 122°19'2 4.2
2018-Jul-14 22:00N 37°48' W 122°17'0 0.0
2018-Jul-14 21:30N 37°48' W 122°17'0 0.0
2018-Jul-14 21:00N 37°48' W 122°17'0 0.0
2018-Jul-14 20:24N 37°48' W 122°17'0 0.0
2018-Jul-14 20:00N 37°48' W 122°17'2 4.9
2018-Jul-14 19:30N 37°48' W 122°20'611.4
2018-Jul-14 19:00N 37°51' W 122°26'2 4.3
2018-Jul-14 18:30N 37°51' W 122°23'5 9.0
2018-Jul-14 18:00N 37°48' W 122°19'2 3.7
2018-Jul-14 17:30N 37°48' W 122°17'  
Track history (hours):
 
Tides and Currents Weather Stations Pressure Air Temp Water Temp Dewpoint Dewpoint Depression Visibility Wind Speed Wind Dir Waves Ship Positions

Potomac

Owner: POTOMAC ASSOCIATION, OAKLAND, CA. More information available from US FCC via Universal Licensing System and Coast Guard Vessel Documentation Center.

Last reported at 2018-Jul-21 00:43 UTC. Time now 2018-Jul-22 06:57 UTC.
Position N 37°48' W 122°17'.

Length 51 m; draft 3.1 m.

MMSI: 367166810.

Date/timePositionNaut miles runAvg speedWind from/ knotsBaromVisibWave heightAir tempDewpointWater temp
2018-Jul-21 00:43N 37°48' W 122°17'0 1.9
2018-Jul-21 00:31N 37°48' W 122°17'510.1
2018-Jul-21 00:01N 37°48' W 122°24'2 3.6
2018-Jul-20 23:31N 37°50' W 122°23'4 8.6
2018-Jul-20 23:00N 37°48' W 122°18'1 2.4
2018-Jul-20 22:30N 37°48' W 122°17'0 0.0
2018-Jul-20 22:00N 37°48' W 122°17'0 0.0
2018-Jul-20 21:31N 37°48' W 122°17'0 0.0
2018-Jul-20 21:01N 37°48' W 122°17'0 0.0
2018-Jul-19 20:44N 37°48' W 122°17'5 5.9
2018-Jul-19 19:57N 37°48' W 122°23'511.5
2018-Jul-19 19:30N 37°49' W 122°29'511.0
2018-Jul-19 19:00N 37°55' W 122°27'2 3.3
2018-Jul-19 18:30N 37°54' W 122°25'611.5
2018-Jul-19 18:00N 37°49' W 122°21'4 7.8
2018-Jul-19 17:30N 37°48' W 122°17'  
2018-Jul-15 01:16N 37°48' W 122°17'1 2.0
2018-Jul-15 01:00N 37°48' W 122°17'4 8.2
2018-Jul-15 00:30N 37°50' W 122°22'5 9.3
2018-Jul-15 00:00N 37°52' W 122°27'1 2.5
2018-Jul-14 23:30N 37°51' W 122°29'3 6.1
2018-Jul-14 23:00N 37°50' W 122°25'5 9.9
2018-Jul-14 22:30N 37°48' W 122°19'2 4.2
2018-Jul-14 22:00N 37°48' W 122°17'0 0.0
2018-Jul-14 21:30N 37°48' W 122°17'0 0.0
2018-Jul-14 21:00N 37°48' W 122°17'0 0.0
2018-Jul-14 20:24N 37°48' W 122°17'0 0.0
2018-Jul-14 20:00N 37°48' W 122°17'2 4.9
2018-Jul-14 19:30N 37°48' W 122°20'611.4
2018-Jul-14 19:00N 37°51' W 122°26'2 4.3
2018-Jul-14 18:30N 37°51' W 122°23'5 9.0
2018-Jul-14 18:00N 37°48' W 122°19'2 3.7
2018-Jul-14 17:30N 37°48' W 122°17'  

Dump ship's entire track history